sensor_id;sensor_type;location;lat;lon;timestamp;temperature;humidity
31597;DHT22;74162;50.912;6.918;2024-03-29T00:00:27;8.20;99.90
31597;DHT22;74162;50.912;6.918;2024-03-29T00:00:58;8.20;99.90
31597;DHT22;74162;50.912;6.918;2024-03-29T00:01:30;8.20;99.90
31597;DHT22;74162;50.912;6.918;2024-03-29T00:02:01;8.20;99.90
31597;DHT22;74162;50.912;6.918;2024-03-29T00:02:32;8.20;99.90
31597;DHT22;74162;50.912;6.918;2024-03-29T00:03:03;8.20;99.90
31597;DHT22;74162;50.912;6.918;2024-03-29T00:03:35;8.20;99.90
31597;DHT22;74162;50.912;6.918;2024-03-29T00:04:06;8.20;99.90
31597;DHT22;74162;50.912;6.918;2024-03-29T00:04:37;8.20;99.90
31597;DHT22;74162;50.912;6.918;2024-03-29T00:05:08;8.20;99.90
31597;DHT22;74162;50.912;6.918;2024-03-29T00:05:39;8.20;99.90
31597;DHT22;74162;50.912;6.918;2024-03-29T00:06:10;8.20;99.90
31597;DHT22;74162;50.912;6.918;2024-03-29T00:06:41;8.20;99.90
31597;DHT22;74162;50.912;6.918;2024-03-29T00:07:12;8.20;99.90
31597;DHT22;74162;50.912;6.918;2024-03-29T00:07:43;8.20;99.90
31597;DHT22;74162;50.912;6.918;2024-03-29T00:08:14;8.20;99.90
31597;DHT22;74162;50.912;6.918;2024-03-29T00:08:46;8.20;99.90
31597;DHT22;74162;50.912;6.918;2024-03-29T00:09:17;8.10;99.90
31597;DHT22;74162;50.912;6.918;2024-03-29T00:09:48;8.10;99.90
31597;DHT22;74162;50.912;6.918;2024-03-29T00:10:19;8.20;99.90
31597;DHT22;74162;50.912;6.918;2024-03-29T00:10:50;8.20;99.90
31597;DHT22;74162;50.912;6.918;2024-03-29T00:11:21;8.20;99.90
31597;DHT22;74162;50.912;6.918;2024-03-29T00:11:52;8.10;99.90
31597;DHT22;74162;50.912;6.918;2024-03-29T00:12:23;8.10;99.90
31597;DHT22;74162;50.912;6.918;2024-03-29T00:12:54;8.10;99.90
31597;DHT22;74162;50.912;6.918;2024-03-29T00:13:25;8.20;99.90
31597;DHT22;74162;50.912;6.918;2024-03-29T00:13:57;8.10;99.90
31597;DHT22;74162;50.912;6.918;2024-03-29T00:14:28;8.10;99.90
31597;DHT22;74162;50.912;6.918;2024-03-29T00:14:59;8.10;99.90
31597;DHT22;74162;50.912;6.918;2024-03-29T00:15:33;8.20;99.90
31597;DHT22;74162;50.912;6.918;2024-03-29T00:16:06;8.20;99.90
31597;DHT22;74162;50.912;6.918;2024-03-29T00:16:37;8.20;99.90
31597;DHT22;74162;50.912;6.918;2024-03-29T00:17:08;8.10;99.90
31597;DHT22;74162;50.912;6.918;2024-03-29T00:17:40;8.10;99.90
31597;DHT22;74162;50.912;6.918;2024-03-29T00:18:11;8.10;99.90
31597;DHT22;74162;50.912;6.918;2024-03-29T00:18:42;8.10;99.90
31597;DHT22;74162;50.912;6.918;2024-03-29T00:19:13;8.10;99.90
31597;DHT22;74162;50.912;6.918;2024-03-29T00:19:44;8.10;99.90
31597;DHT22;74162;50.912;6.918;2024-03-29T00:20:16;8.20;99.90
31597;DHT22;74162;50.912;6.918;2024-03-29T00:20:47;8.10;99.90
31597;DHT22;74162;50.912;6.918;2024-03-29T00:21:18;8.10;99.90
31597;DHT22;74162;50.912;6.918;2024-03-29T00:21:49;8.10;99.90
31597;DHT22;74162;50.912;6.918;2024-03-29T00:22:20;8.10;99.90
31597;DHT22;74162;50.912;6.918;2024-03-29T00:22:52;8.10;99.90
31597;DHT22;74162;50.912;6.918;2024-03-29T00:23:23;8.10;99.90
31597;DHT22;74162;50.912;6.918;2024-03-29T00:23:54;8.10;99.90
31597;DHT22;74162;50.912;6.918;2024-03-29T00:24:25;8.10;99.90
31597;DHT22;74162;50.912;6.918;2024-03-29T00:24:56;8.00;99.90
31597;DHT22;74162;50.912;6.918;2024-03-29T00:25:27;8.10;99.90
31597;DHT22;74162;50.912;6.918;2024-03-29T00:25:58;8.10;99.90
31597;DHT22;74162;50.912;6.918;2024-03-29T00:26:29;8.10;99.90
31597;DHT22;74162;50.912;6.918;2024-03-29T00:27:00;8.00;99.90
31597;DHT22;74162;50.912;6.918;2024-03-29T00:27:31;8.10;99.90
31597;DHT22;74162;50.912;6.918;2024-03-29T00:28:03;8.10;99.90
31597;DHT22;74162;50.912;6.918;2024-03-29T00:28:34;8.10;99.90
31597;DHT22;74162;50.912;6.918;2024-03-29T00:29:05;8.10;99.90
31597;DHT22;74162;50.912;6.918;2024-03-29T00:29:36;8.00;99.90
31597;DHT22;74162;50.912;6.918;2024-03-29T00:30:07;8.00;99.90
31597;DHT22;74162;50.912;6.918;2024-03-29T00:30:38;8.00;99.90
31597;DHT22;74162;50.912;6.918;2024-03-29T00:31:10;8.00;99.90
31597;DHT22;74162;50.912;6.918;2024-03-29T00:31:41;8.00;99.90
31597;DHT22;74162;50.912;6.918;2024-03-29T00:32:12;8.00;99.90
31597;DHT22;74162;50.912;6.918;2024-03-29T00:32:43;8.00;99.90
31597;DHT22;74162;50.912;6.918;2024-03-29T00:33:14;8.00;99.90
31597;DHT22;74162;50.912;6.918;2024-03-29T00:33:45;8.00;99.90
31597;DHT22;74162;50.912;6.918;2024-03-29T00:34:16;8.00;99.90
31597;DHT22;74162;50.912;6.918;2024-03-29T00:34:50;8.00;99.90
31597;DHT22;74162;50.912;6.918;2024-03-29T00:35:22;8.00;99.90
31597;DHT22;74162;50.912;6.918;2024-03-29T00:35:53;8.00;99.90
31597;DHT22;74162;50.912;6.918;2024-03-29T00:36:24;8.00;99.90
31597;DHT22;74162;50.912;6.918;2024-03-29T00:36:55;8.00;99.90
31597;DHT22;74162;50.912;6.918;2024-03-29T00:37:26;8.00;99.90
31597;DHT22;74162;50.912;6.918;2024-03-29T00:37:57;8.00;99.90
31597;DHT22;74162;50.912;6.918;2024-03-29T00:38:29;8.00;99.90
31597;DHT22;74162;50.912;6.918;2024-03-29T00:39:00;8.00;99.90
31597;DHT22;74162;50.912;6.918;2024-03-29T00:39:31;8.00;99.90
31597;DHT22;74162;50.912;6.918;2024-03-29T00:40:02;8.00;99.90
31597;DHT22;74162;50.912;6.918;2024-03-29T00:40:35;8.00;99.90
31597;DHT22;74162;50.912;6.918;2024-03-29T00:41:06;8.00;99.90
31597;DHT22;74162;50.912;6.918;2024-03-29T00:41:37;8.00;99.90
31597;DHT22;74162;50.912;6.918;2024-03-29T00:42:08;8.00;99.90
31597;DHT22;74162;50.912;6.918;2024-03-29T00:42:40;8.00;99.90
31597;DHT22;74162;50.912;6.918;2024-03-29T00:43:11;8.00;99.90
31597;DHT22;74162;50.912;6.918;2024-03-29T00:43:42;8.00;99.90
31597;DHT22;74162;50.912;6.918;2024-03-29T00:44:13;8.00;99.90
31597;DHT22;74162;50.912;6.918;2024-03-29T00:44:44;8.00;99.90
31597;DHT22;74162;50.912;6.918;2024-03-29T00:45:15;8.00;99.90
31597;DHT22;74162;50.912;6.918;2024-03-29T00:45:46;8.00;99.90
31597;DHT22;74162;50.912;6.918;2024-03-29T00:46:17;8.00;99.90
31597;DHT22;74162;50.912;6.918;2024-03-29T00:46:48;8.10;99.90
31597;DHT22;74162;50.912;6.918;2024-03-29T00:47:19;8.00;99.90
31597;DHT22;74162;50.912;6.918;2024-03-29T00:47:50;8.00;99.90
31597;DHT22;74162;50.912;6.918;2024-03-29T00:48:21;8.10;99.90
31597;DHT22;74162;50.912;6.918;2024-03-29T00:48:52;8.00;99.90
31597;DHT22;74162;50.912;6.918;2024-03-29T00:49:23;8.10;99.90
31597;DHT22;74162;50.912;6.918;2024-03-29T00:49:54;8.10;99.90
31597;DHT22;74162;50.912;6.918;2024-03-29T00:50:25;8.10;99.90
31597;DHT22;74162;50.912;6.918;2024-03-29T00:50:56;8.10;99.90
31597;DHT22;74162;50.912;6.918;2024-03-29T00:51:27;8.10;99.90
31597;DHT22;74162;50.912;6.918;2024-03-29T00:51:59;8.10;99.90
31597;DHT22;74162;50.912;6.918;2024-03-29T00:52:30;8.10;99.90
31597;DHT22;74162;50.912;6.918;2024-03-29T00:53:01;8.10;99.90
31597;DHT22;74162;50.912;6.918;2024-03-29T00:53:33;8.10;99.90
31597;DHT22;74162;50.912;6.918;2024-03-29T00:54:04;8.10;99.90
31597;DHT22;74162;50.912;6.918;2024-03-29T00:54:35;8.10;99.90
31597;DHT22;74162;50.912;6.918;2024-03-29T00:55:06;8.10;99.90
31597;DHT22;74162;50.912;6.918;2024-03-29T00:55:37;8.20;99.90
31597;DHT22;74162;50.912;6.918;2024-03-29T00:56:08;8.20;99.90
31597;DHT22;74162;50.912;6.918;2024-03-29T00:56:39;8.20;99.90
31597;DHT22;74162;50.912;6.918;2024-03-29T00:57:10;8.20;99.90
31597;DHT22;74162;50.912;6.918;2024-03-29T00:57:42;8.30;99.90
31597;DHT22;74162;50.912;6.918;2024-03-29T00:58:13;8.30;99.90
31597;DHT22;74162;50.912;6.918;2024-03-29T00:58:44;8.30;99.90
31597;DHT22;74162;50.912;6.918;2024-03-29T00:59:15;8.30;99.90
31597;DHT22;74162;50.912;6.918;2024-03-29T00:59:46;8.30;99.90
31597;DHT22;74162;50.912;6.918;2024-03-29T01:00:17;8.30;99.90
31597;DHT22;74162;50.912;6.918;2024-03-29T01:00:48;8.30;99.90
31597;DHT22;74162;50.912;6.918;2024-03-29T01:01:19;8.30;99.90
31597;DHT22;74162;50.912;6.918;2024-03-29T01:01:50;8.30;99.90
31597;DHT22;74162;50.912;6.918;2024-03-29T01:02:22;8.30;99.90
31597;DHT22;74162;50.912;6.918;2024-03-29T01:02:53;8.30;99.90
31597;DHT22;74162;50.912;6.918;2024-03-29T01:03:24;8.30;99.90
31597;DHT22;74162;50.912;6.918;2024-03-29T01:03:55;8.40;99.90
31597;DHT22;74162;50.912;6.918;2024-03-29T01:04:26;8.40;99.90
31597;DHT22;74162;50.912;6.918;2024-03-29T01:04:57;8.40;99.90
31597;DHT22;74162;50.912;6.918;2024-03-29T01:05:28;8.40;99.90
31597;DHT22;74162;50.912;6.918;2024-03-29T01:06:02;8.40;99.90
31597;DHT22;74162;50.912;6.918;2024-03-29T01:06:34;8.40;99.90
31597;DHT22;74162;50.912;6.918;2024-03-29T01:07:05;8.40;99.90
31597;DHT22;74162;50.912;6.918;2024-03-29T01:07:36;8.50;99.90
31597;DHT22;74162;50.912;6.918;2024-03-29T01:08:07;8.60;99.90
31597;DHT22;74162;50.912;6.918;2024-03-29T01:08:38;8.60;99.90
31597;DHT22;74162;50.912;6.918;2024-03-29T01:09:09;8.60;99.90
31597;DHT22;74162;50.912;6.918;2024-03-29T01:09:41;8.60;99.90
31597;DHT22;74162;50.912;6.918;2024-03-29T01:10:12;8.60;99.90
31597;DHT22;74162;50.912;6.918;2024-03-29T01:10:43;8.60;99.90
31597;DHT22;74162;50.912;6.918;2024-03-29T01:11:14;8.60;99.90
31597;DHT22;74162;50.912;6.918;2024-03-29T01:11:45;8.60;99.90
31597;DHT22;74162;50.912;6.918;2024-03-29T01:12:16;8.60;99.90
31597;DHT22;74162;50.912;6.918;2024-03-29T01:12:47;8.70;99.90
31597;DHT22;74162;50.912;6.918;2024-03-29T01:13:18;8.70;99.90
31597;DHT22;74162;50.912;6.918;2024-03-29T01:13:49;8.70;99.90
31597;DHT22;74162;50.912;6.918;2024-03-29T01:14:20;8.70;99.90
31597;DHT22;74162;50.912;6.918;2024-03-29T01:14:51;8.70;99.90
31597;DHT22;74162;50.912;6.918;2024-03-29T01:15:23;8.80;99.90
31597;DHT22;74162;50.912;6.918;2024-03-29T01:15:54;8.80;99.90
31597;DHT22;74162;50.912;6.918;2024-03-29T01:16:25;8.80;99.90
31597;DHT22;74162;50.912;6.918;2024-03-29T01:16:56;8.90;99.90
31597;DHT22;74162;50.912;6.918;2024-03-29T01:17:28;8.90;99.90
31597;DHT22;74162;50.912;6.918;2024-03-29T01:17:59;8.90;99.90
31597;DHT22;74162;50.912;6.918;2024-03-29T01:18:30;8.90;99.90
31597;DHT22;74162;50.912;6.918;2024-03-29T01:19:01;8.90;99.90
31597;DHT22;74162;50.912;6.918;2024-03-29T01:19:32;8.90;99.90
31597;DHT22;74162;50.912;6.918;2024-03-29T01:20:04;9.00;99.90
31597;DHT22;74162;50.912;6.918;2024-03-29T01:20:35;9.00;99.90
31597;DHT22;74162;50.912;6.918;2024-03-29T01:21:06;9.00;99.90
31597;DHT22;74162;50.912;6.918;2024-03-29T01:21:37;9.00;99.90
31597;DHT22;74162;50.912;6.918;2024-03-29T01:22:08;9.00;99.90
31597;DHT22;74162;50.912;6.918;2024-03-29T01:22:40;9.00;99.90
31597;DHT22;74162;50.912;6.918;2024-03-29T01:23:11;9.00;99.90
31597;DHT22;74162;50.912;6.918;2024-03-29T01:24:09;9.00;99.90
31597;DHT22;74162;50.912;6.918;2024-03-29T01:24:41;9.00;99.90
31597;DHT22;74162;50.912;6.918;2024-03-29T01:25:12;9.00;99.90
31597;DHT22;74162;50.912;6.918;2024-03-29T01:25:44;9.00;99.90
31597;DHT22;74162;50.912;6.918;2024-03-29T01:26:15;9.00;99.90
31597;DHT22;74162;50.912;6.918;2024-03-29T01:26:46;9.10;99.90
31597;DHT22;74162;50.912;6.918;2024-03-29T01:27:17;9.00;99.90
31597;DHT22;74162;50.912;6.918;2024-03-29T01:27:48;9.10;99.90
31597;DHT22;74162;50.912;6.918;2024-03-29T01:28:19;9.10;99.90
31597;DHT22;74162;50.912;6.918;2024-03-29T01:28:50;9.10;99.90
31597;DHT22;74162;50.912;6.918;2024-03-29T01:29:21;9.10;99.90
31597;DHT22;74162;50.912;6.918;2024-03-29T01:29:52;9.10;99.90
31597;DHT22;74162;50.912;6.918;2024-03-29T01:30:23;9.10;99.90
31597;DHT22;74162;50.912;6.918;2024-03-29T01:30:55;9.10;99.90
31597;DHT22;74162;50.912;6.918;2024-03-29T01:31:26;9.10;99.90
31597;DHT22;74162;50.912;6.918;2024-03-29T01:31:57;9.20;99.90
31597;DHT22;74162;50.912;6.918;2024-03-29T01:32:28;9.20;99.90
31597;DHT22;74162;50.912;6.918;2024-03-29T01:32:59;9.20;99.90
31597;DHT22;74162;50.912;6.918;2024-03-29T01:33:30;9.20;99.90
31597;DHT22;74162;50.912;6.918;2024-03-29T01:34:02;9.20;99.90
31597;DHT22;74162;50.912;6.918;2024-03-29T01:34:33;9.20;99.90
31597;DHT22;74162;50.912;6.918;2024-03-29T01:35:04;9.20;99.90
31597;DHT22;74162;50.912;6.918;2024-03-29T01:35:35;9.20;99.90
31597;DHT22;74162;50.912;6.918;2024-03-29T01:36:07;9.20;99.90
31597;DHT22;74162;50.912;6.918;2024-03-29T01:36:38;9.20;99.90
31597;DHT22;74162;50.912;6.918;2024-03-29T01:37:09;9.20;99.90
31597;DHT22;74162;50.912;6.918;2024-03-29T01:37:40;9.20;99.90
31597;DHT22;74162;50.912;6.918;2024-03-29T01:38:11;9.20;99.90
31597;DHT22;74162;50.912;6.918;2024-03-29T01:38:42;9.20;99.90
31597;DHT22;74162;50.912;6.918;2024-03-29T01:39:13;9.20;99.90
31597;DHT22;74162;50.912;6.918;2024-03-29T01:39:44;9.20;99.90
31597;DHT22;74162;50.912;6.918;2024-03-29T01:40:16;9.20;99.90
31597;DHT22;74162;50.912;6.918;2024-03-29T01:40:47;9.20;99.90
31597;DHT22;74162;50.912;6.918;2024-03-29T01:41:18;9.20;99.90
31597;DHT22;74162;50.912;6.918;2024-03-29T01:41:49;9.20;99.90
31597;DHT22;74162;50.912;6.918;2024-03-29T01:42:20;9.10;99.90
31597;DHT22;74162;50.912;6.918;2024-03-29T01:42:54;9.20;99.90
31597;DHT22;74162;50.912;6.918;2024-03-29T01:43:25;9.10;99.90
31597;DHT22;74162;50.912;6.918;2024-03-29T01:43:58;9.20;99.90
31597;DHT22;74162;50.912;6.918;2024-03-29T01:44:29;9.10;99.90
31597;DHT22;74162;50.912;6.918;2024-03-29T01:45:00;9.10;99.90
31597;DHT22;74162;50.912;6.918;2024-03-29T01:45:31;9.10;99.90
31597;DHT22;74162;50.912;6.918;2024-03-29T01:46:02;9.10;99.90
31597;DHT22;74162;50.912;6.918;2024-03-29T01:46:37;9.10;99.90
31597;DHT22;74162;50.912;6.918;2024-03-29T01:47:08;9.20;99.90
31597;DHT22;74162;50.912;6.918;2024-03-29T01:47:39;9.10;99.90
31597;DHT22;74162;50.912;6.918;2024-03-29T01:48:12;9.10;99.90
31597;DHT22;74162;50.912;6.918;2024-03-29T01:48:43;9.10;99.90
31597;DHT22;74162;50.912;6.918;2024-03-29T01:49:14;9.10;99.90
31597;DHT22;74162;50.912;6.918;2024-03-29T01:49:45;9.10;99.90
31597;DHT22;74162;50.912;6.918;2024-03-29T01:50:16;9.10;99.90
31597;DHT22;74162;50.912;6.918;2024-03-29T01:50:48;9.10;99.90
31597;DHT22;74162;50.912;6.918;2024-03-29T01:51:21;9.10;99.90
31597;DHT22;74162;50.912;6.918;2024-03-29T01:51:52;9.10;99.90
31597;DHT22;74162;50.912;6.918;2024-03-29T01:52:23;9.10;99.90
31597;DHT22;74162;50.912;6.918;2024-03-29T01:52:56;9.10;99.90
31597;DHT22;74162;50.912;6.918;2024-03-29T01:53:27;9.10;99.90
31597;DHT22;74162;50.912;6.918;2024-03-29T01:53:59;9.10;99.90
31597;DHT22;74162;50.912;6.918;2024-03-29T01:54:30;9.10;99.90
31597;DHT22;74162;50.912;6.918;2024-03-29T01:55:02;9.10;99.90
31597;DHT22;74162;50.912;6.918;2024-03-29T01:55:34;9.10;99.90
31597;DHT22;74162;50.912;6.918;2024-03-29T01:56:06;9.10;99.90
31597;DHT22;74162;50.912;6.918;2024-03-29T01:56:39;9.10;99.90
31597;DHT22;74162;50.912;6.918;2024-03-29T01:57:12;9.10;99.90
31597;DHT22;74162;50.912;6.918;2024-03-29T01:57:47;9.10;99.90
31597;DHT22;74162;50.912;6.918;2024-03-29T01:58:20;9.10;99.90
31597;DHT22;74162;50.912;6.918;2024-03-29T01:58:52;9.10;99.90
31597;DHT22;74162;50.912;6.918;2024-03-29T01:59:25;9.10;99.90
31597;DHT22;74162;50.912;6.918;2024-03-29T01:59:57;9.10;99.90
31597;DHT22;74162;50.912;6.918;2024-03-29T02:00:30;9.10;99.90
31597;DHT22;74162;50.912;6.918;2024-03-29T02:01:07;9.10;99.90
31597;DHT22;74162;50.912;6.918;2024-03-29T02:01:40;9.10;99.90
31597;DHT22;74162;50.912;6.918;2024-03-29T02:02:12;9.10;99.90
31597;DHT22;74162;50.912;6.918;2024-03-29T02:02:43;9.10;99.90
31597;DHT22;74162;50.912;6.918;2024-03-29T02:03:15;9.10;99.90
31597;DHT22;74162;50.912;6.918;2024-03-29T02:03:47;9.10;99.90
31597;DHT22;74162;50.912;6.918;2024-03-29T02:04:18;9.10;99.90
31597;DHT22;74162;50.912;6.918;2024-03-29T02:04:50;9.10;99.90
31597;DHT22;74162;50.912;6.918;2024-03-29T02:05:22;9.20;99.90
31597;DHT22;74162;50.912;6.918;2024-03-29T02:05:53;9.20;99.90
31597;DHT22;74162;50.912;6.918;2024-03-29T02:06:26;9.20;99.90
31597;DHT22;74162;50.912;6.918;2024-03-29T02:06:59;9.20;99.90
31597;DHT22;74162;50.912;6.918;2024-03-29T02:07:30;9.20;99.90
31597;DHT22;74162;50.912;6.918;2024-03-29T02:08:03;9.20;99.90
31597;DHT22;74162;50.912;6.918;2024-03-29T02:08:35;9.20;99.90
31597;DHT22;74162;50.912;6.918;2024-03-29T02:09:06;9.20;99.90
31597;DHT22;74162;50.912;6.918;2024-03-29T02:09:38;9.20;99.90
31597;DHT22;74162;50.912;6.918;2024-03-29T02:10:10;9.30;99.90
31597;DHT22;74162;50.912;6.918;2024-03-29T02:10:44;9.30;99.90
31597;DHT22;74162;50.912;6.918;2024-03-29T02:11:17;9.30;99.90
31597;DHT22;74162;50.912;6.918;2024-03-29T02:11:48;9.30;99.90
31597;DHT22;74162;50.912;6.918;2024-03-29T02:12:21;9.30;99.90
31597;DHT22;74162;50.912;6.918;2024-03-29T02:12:53;9.30;99.90
31597;DHT22;74162;50.912;6.918;2024-03-29T02:13:25;9.30;99.90
31597;DHT22;74162;50.912;6.918;2024-03-29T02:13:56;9.30;99.90
31597;DHT22;74162;50.912;6.918;2024-03-29T02:14:27;9.30;99.90
31597;DHT22;74162;50.912;6.918;2024-03-29T02:14:58;9.30;99.90
31597;DHT22;74162;50.912;6.918;2024-03-29T02:15:32;9.30;99.90
31597;DHT22;74162;50.912;6.918;2024-03-29T02:16:04;9.30;99.90
31597;DHT22;74162;50.912;6.918;2024-03-29T02:16:35;9.40;99.90
31597;DHT22;74162;50.912;6.918;2024-03-29T02:17:09;9.40;99.90
31597;DHT22;74162;50.912;6.918;2024-03-29T02:17:41;9.40;99.90
31597;DHT22;74162;50.912;6.918;2024-03-29T02:18:12;9.40;99.90
31597;DHT22;74162;50.912;6.918;2024-03-29T02:18:43;9.40;99.90
31597;DHT22;74162;50.912;6.918;2024-03-29T02:19:15;9.40;99.90
31597;DHT22;74162;50.912;6.918;2024-03-29T02:19:47;9.30;99.90
31597;DHT22;74162;50.912;6.918;2024-03-29T02:20:18;9.30;99.90
31597;DHT22;74162;50.912;6.918;2024-03-29T02:20:49;9.30;99.90
31597;DHT22;74162;50.912;6.918;2024-03-29T02:21:20;9.30;99.90
31597;DHT22;74162;50.912;6.918;2024-03-29T02:21:55;9.30;99.90
31597;DHT22;74162;50.912;6.918;2024-03-29T02:22:30;9.30;99.90
31597;DHT22;74162;50.912;6.918;2024-03-29T02:23:19;9.30;99.90
31597;DHT22;74162;50.912;6.918;2024-03-29T02:24:07;9.30;99.90
31597;DHT22;74162;50.912;6.918;2024-03-29T02:24:38;9.20;99.90
31597;DHT22;74162;50.912;6.918;2024-03-29T02:25:11;9.20;99.90
31597;DHT22;74162;50.912;6.918;2024-03-29T02:25:42;9.30;99.90
31597;DHT22;74162;50.912;6.918;2024-03-29T02:26:13;9.20;99.90
31597;DHT22;74162;50.912;6.918;2024-03-29T02:26:44;9.30;99.90
31597;DHT22;74162;50.912;6.918;2024-03-29T02:27:17;9.20;99.90
31597;DHT22;74162;50.912;6.918;2024-03-29T02:27:48;9.20;99.90
31597;DHT22;74162;50.912;6.918;2024-03-29T02:28:23;9.20;99.90
31597;DHT22;74162;50.912;6.918;2024-03-29T02:28:54;9.20;99.90
31597;DHT22;74162;50.912;6.918;2024-03-29T02:29:26;9.20;99.90
31597;DHT22;74162;50.912;6.918;2024-03-29T02:29:57;9.20;99.90
31597;DHT22;74162;50.912;6.918;2024-03-29T02:30:29;9.20;99.90
31597;DHT22;74162;50.912;6.918;2024-03-29T02:31:03;9.20;99.90
31597;DHT22;74162;50.912;6.918;2024-03-29T02:31:36;9.20;99.90
31597;DHT22;74162;50.912;6.918;2024-03-29T02:32:07;9.20;99.90
31597;DHT22;74162;50.912;6.918;2024-03-29T02:32:38;9.20;99.90
31597;DHT22;74162;50.912;6.918;2024-03-29T02:33:09;9.20;99.90
31597;DHT22;74162;50.912;6.918;2024-03-29T02:33:41;9.20;99.90
31597;DHT22;74162;50.912;6.918;2024-03-29T02:34:12;9.20;99.90
31597;DHT22;74162;50.912;6.918;2024-03-29T02:34:43;9.20;99.90
31597;DHT22;74162;50.912;6.918;2024-03-29T02:35:14;9.20;99.90
31597;DHT22;74162;50.912;6.918;2024-03-29T02:35:46;9.10;99.90
31597;DHT22;74162;50.912;6.918;2024-03-29T02:36:16;9.20;99.90
31597;DHT22;74162;50.912;6.918;2024-03-29T02:36:47;9.20;99.90
31597;DHT22;74162;50.912;6.918;2024-03-29T02:37:19;9.10;99.90
31597;DHT22;74162;50.912;6.918;2024-03-29T02:37:51;9.10;99.90
31597;DHT22;74162;50.912;6.918;2024-03-29T02:38:22;9.20;99.90
31597;DHT22;74162;50.912;6.918;2024-03-29T02:38:53;9.10;99.90
31597;DHT22;74162;50.912;6.918;2024-03-29T02:39:24;9.10;99.90
31597;DHT22;74162;50.912;6.918;2024-03-29T02:39:56;9.20;99.90
31597;DHT22;74162;50.912;6.918;2024-03-29T02:40:27;9.10;99.90
31597;DHT22;74162;50.912;6.918;2024-03-29T02:40:58;9.10;99.90
31597;DHT22;74162;50.912;6.918;2024-03-29T02:41:29;9.20;99.90
31597;DHT22;74162;50.912;6.918;2024-03-29T02:42:01;9.10;99.90
31597;DHT22;74162;50.912;6.918;2024-03-29T02:42:32;9.10;99.90
31597;DHT22;74162;50.912;6.918;2024-03-29T02:43:04;9.10;99.90
31597;DHT22;74162;50.912;6.918;2024-03-29T02:43:35;9.10;99.90
31597;DHT22;74162;50.912;6.918;2024-03-29T02:44:05;9.10;99.90
31597;DHT22;74162;50.912;6.918;2024-03-29T02:44:38;9.10;99.90
31597;DHT22;74162;50.912;6.918;2024-03-29T02:45:09;9.10;99.90
31597;DHT22;74162;50.912;6.918;2024-03-29T02:45:40;9.10;99.90
31597;DHT22;74162;50.912;6.918;2024-03-29T02:46:11;9.10;99.90
31597;DHT22;74162;50.912;6.918;2024-03-29T02:46:42;9.10;99.90
31597;DHT22;74162;50.912;6.918;2024-03-29T02:47:14;9.00;99.90
31597;DHT22;74162;50.912;6.918;2024-03-29T02:47:45;9.00;99.90
31597;DHT22;74162;50.912;6.918;2024-03-29T02:48:16;9.00;99.90
31597;DHT22;74162;50.912;6.918;2024-03-29T02:48:47;9.10;99.90
31597;DHT22;74162;50.912;6.918;2024-03-29T02:49:18;9.00;99.90
31597;DHT22;74162;50.912;6.918;2024-03-29T02:49:50;9.00;99.90
31597;DHT22;74162;50.912;6.918;2024-03-29T02:50:21;9.10;99.90
31597;DHT22;74162;50.912;6.918;2024-03-29T02:50:52;9.00;99.90
31597;DHT22;74162;50.912;6.918;2024-03-29T02:51:23;9.00;99.90
31597;DHT22;74162;50.912;6.918;2024-03-29T02:51:54;9.00;99.90
31597;DHT22;74162;50.912;6.918;2024-03-29T02:52:25;9.00;99.90
31597;DHT22;74162;50.912;6.918;2024-03-29T02:52:56;9.00;99.90
31597;DHT22;74162;50.912;6.918;2024-03-29T02:53:28;9.00;99.90
31597;DHT22;74162;50.912;6.918;2024-03-29T02:53:59;9.00;99.90
31597;DHT22;74162;50.912;6.918;2024-03-29T02:54:30;9.00;99.90
31597;DHT22;74162;50.912;6.918;2024-03-29T02:55:01;9.00;99.90
31597;DHT22;74162;50.912;6.918;2024-03-29T02:55:32;9.00;99.90
31597;DHT22;74162;50.912;6.918;2024-03-29T02:56:04;9.00;99.90
31597;DHT22;74162;50.912;6.918;2024-03-29T02:56:37;9.00;99.90
31597;DHT22;74162;50.912;6.918;2024-03-29T02:57:09;9.00;99.90
31597;DHT22;74162;50.912;6.918;2024-03-29T02:57:40;9.00;99.90
31597;DHT22;74162;50.912;6.918;2024-03-29T02:58:11;9.00;99.90
31597;DHT22;74162;50.912;6.918;2024-03-29T02:58:42;9.00;99.90
31597;DHT22;74162;50.912;6.918;2024-03-29T02:59:13;9.00;99.90
31597;DHT22;74162;50.912;6.918;2024-03-29T02:59:44;9.00;99.90
31597;DHT22;74162;50.912;6.918;2024-03-29T03:00:16;9.00;99.90
31597;DHT22;74162;50.912;6.918;2024-03-29T03:00:47;9.00;99.90
31597;DHT22;74162;50.912;6.918;2024-03-29T03:01:18;9.00;99.90
31597;DHT22;74162;50.912;6.918;2024-03-29T03:01:49;9.00;99.90
31597;DHT22;74162;50.912;6.918;2024-03-29T03:02:20;9.00;99.90
31597;DHT22;74162;50.912;6.918;2024-03-29T03:02:51;9.00;99.90
31597;DHT22;74162;50.912;6.918;2024-03-29T03:03:27;9.00;99.90
31597;DHT22;74162;50.912;6.918;2024-03-29T03:03:58;9.00;99.90
31597;DHT22;74162;50.912;6.918;2024-03-29T03:04:29;9.00;99.90
31597;DHT22;74162;50.912;6.918;2024-03-29T03:05:00;9.00;99.90
31597;DHT22;74162;50.912;6.918;2024-03-29T03:05:31;9.00;99.90
31597;DHT22;74162;50.912;6.918;2024-03-29T03:06:03;9.00;99.90
31597;DHT22;74162;50.912;6.918;2024-03-29T03:06:34;9.00;99.90
31597;DHT22;74162;50.912;6.918;2024-03-29T03:07:06;9.00;99.90
31597;DHT22;74162;50.912;6.918;2024-03-29T03:07:52;9.00;99.90
31597;DHT22;74162;50.912;6.918;2024-03-29T03:08:41;9.00;99.90
31597;DHT22;74162;50.912;6.918;2024-03-29T03:09:31;9.00;99.90
31597;DHT22;74162;50.912;6.918;2024-03-29T03:10:21;9.00;99.90
31597;DHT22;74162;50.912;6.918;2024-03-29T03:11:19;9.00;99.90
31597;DHT22;74162;50.912;6.918;2024-03-29T03:11:50;9.00;99.90
31597;DHT22;74162;50.912;6.918;2024-03-29T03:12:22;9.00;99.90
31597;DHT22;74162;50.912;6.918;2024-03-29T03:12:53;9.00;99.90
31597;DHT22;74162;50.912;6.918;2024-03-29T03:13:25;9.00;99.90
31597;DHT22;74162;50.912;6.918;2024-03-29T03:13:59;9.00;99.90
31597;DHT22;74162;50.912;6.918;2024-03-29T03:14:31;9.00;99.90
31597;DHT22;74162;50.912;6.918;2024-03-29T03:15:02;9.00;99.90
31597;DHT22;74162;50.912;6.918;2024-03-29T03:15:34;9.00;99.90
31597;DHT22;74162;50.912;6.918;2024-03-29T03:16:05;9.00;99.90
31597;DHT22;74162;50.912;6.918;2024-03-29T03:16:36;9.00;99.90
31597;DHT22;74162;50.912;6.918;2024-03-29T03:17:08;9.00;99.90
31597;DHT22;74162;50.912;6.918;2024-03-29T03:17:39;9.00;99.90
31597;DHT22;74162;50.912;6.918;2024-03-29T03:18:10;9.00;99.90
31597;DHT22;74162;50.912;6.918;2024-03-29T03:18:41;9.00;99.90
31597;DHT22;74162;50.912;6.918;2024-03-29T03:19:12;9.00;99.90
31597;DHT22;74162;50.912;6.918;2024-03-29T03:19:43;9.00;99.90
31597;DHT22;74162;50.912;6.918;2024-03-29T03:20:14;9.00;99.90
31597;DHT22;74162;50.912;6.918;2024-03-29T03:20:54;9.00;99.90
31597;DHT22;74162;50.912;6.918;2024-03-29T03:21:25;9.00;99.90
31597;DHT22;74162;50.912;6.918;2024-03-29T03:21:56;9.00;99.90
31597;DHT22;74162;50.912;6.918;2024-03-29T03:22:27;9.00;99.90
31597;DHT22;74162;50.912;6.918;2024-03-29T03:22:58;9.00;99.90
31597;DHT22;74162;50.912;6.918;2024-03-29T03:23:30;9.00;99.90
31597;DHT22;74162;50.912;6.918;2024-03-29T03:24:01;9.00;99.90
31597;DHT22;74162;50.912;6.918;2024-03-29T03:24:32;9.00;99.90